sensor_id;sensor_type;location;lat;lon;timestamp;pressure;altitude;pressure_sealevel;temperature;humidity
80749;BME280;70145;53.746;9.970;2023-10-09T00:00:16;101846.13;;;10.28;59.06
80749;BME280;70145;53.746;9.970;2023-10-09T00:03:03;101829.13;;;10.28;59.16
80749;BME280;70145;53.746;9.970;2023-10-09T00:05:29;101819.19;;;10.28;59.10
80749;BME280;70145;53.746;9.970;2023-10-09T00:08:10;101813.91;;;10.27;58.96
80749;BME280;70145;53.746;9.970;2023-10-09T00:10:41;101812.19;;;10.26;59.13
80749;BME280;70145;53.746;9.970;2023-10-09T00:13:19;101797.00;;;10.25;59.09
80749;BME280;70145;53.746;9.970;2023-10-09T00:15:45;101789.03;;;10.23;59.10
80749;BME280;70145;53.746;9.970;2023-10-09T00:18:18;101782.88;;;10.21;59.01
80749;BME280;70145;53.746;9.970;2023-10-09T00:20:47;101781.16;;;10.20;59.29
80749;BME280;70145;53.746;9.970;2023-10-09T00:23:19;101775.00;;;10.18;59.27
80749;BME280;70145;53.746;9.970;2023-10-09T00:25:50;101778.78;;;10.16;58.98
80749;BME280;70145;53.746;9.970;2023-10-09T00:28:35;101762.72;;;10.14;58.96
80749;BME280;70145;53.746;9.970;2023-10-09T00:31:03;101748.38;;;10.14;59.30
80749;BME280;70145;53.746;9.970;2023-10-09T00:33:31;101740.63;;;10.09;59.15
80749;BME280;70145;53.746;9.970;2023-10-09T00:36:01;101743.41;;;10.08;58.99
80749;BME280;70145;53.746;9.970;2023-10-09T00:38:34;101731.03;;;10.05;59.27
80749;BME280;70145;53.746;9.970;2023-10-09T00:41:00;101726.63;;;10.04;59.36
80749;BME280;70145;53.746;9.970;2023-10-09T00:43:35;101728.53;;;10.02;59.11
80749;BME280;70145;53.746;9.970;2023-10-09T00:46:02;101726.81;;;10.01;59.19
80749;BME280;70145;53.746;9.970;2023-10-09T00:48:29;101727.78;;;10.00;59.32
80749;BME280;70145;53.746;9.970;2023-10-09T00:51:03;101724.22;;;10.00;59.17
80749;BME280;70145;53.746;9.970;2023-10-09T00:53:46;101715.38;;;9.98;59.54
80749;BME280;70145;53.746;9.970;2023-10-09T00:56:20;101718.06;;;9.98;59.67
80749;BME280;70145;53.746;9.970;2023-10-09T00:58:56;101702.03;;;9.96;59.28
80749;BME280;70145;53.746;9.970;2023-10-09T01:01:35;101695.81;;;9.96;59.47
80749;BME280;70145;53.746;9.970;2023-10-09T01:04:03;101694.06;;;9.94;59.47
80749;BME280;70145;53.746;9.970;2023-10-09T01:06:33;101696.88;;;9.93;59.46
80749;BME280;70145;53.746;9.970;2023-10-09T01:09:07;101674.69;;;9.89;59.84
80749;BME280;70145;53.746;9.970;2023-10-09T01:11:36;101686.31;;;9.90;59.65
80749;BME280;70145;53.746;9.970;2023-10-09T01:14:13;101676.59;;;9.87;59.56
80749;BME280;70145;53.746;9.970;2023-10-09T01:16:39;101668.63;;;9.86;59.63
80749;BME280;70145;53.746;9.970;2023-10-09T01:19:07;101661.63;;;9.83;59.63
80749;BME280;70145;53.746;9.970;2023-10-09T01:21:38;101662.63;;;9.82;59.65
80749;BME280;70145;53.746;9.970;2023-10-09T01:24:05;101662.72;;;9.81;59.69
80749;BME280;70145;53.746;9.970;2023-10-09T01:26:40;101653.88;;;9.79;59.75
80749;BME280;70145;53.746;9.970;2023-10-09T01:29:13;101644.09;;;9.78;59.52
80749;BME280;70145;53.746;9.970;2023-10-09T01:32:00;101656.75;;;9.76;59.60
80749;BME280;70145;53.746;9.970;2023-10-09T01:34:29;101665.72;;;9.76;59.64
80749;BME280;70145;53.746;9.970;2023-10-09T01:40:02;101650.53;;;9.75;59.63
80749;BME280;70145;53.746;9.970;2023-10-09T01:42:47;101663.13;;;9.75;59.76
80749;BME280;70145;53.746;9.970;2023-10-09T01:45:13;101633.63;;;9.73;59.53
80749;BME280;70145;53.746;9.970;2023-10-09T01:47:53;101632.66;;;9.74;59.84
80749;BME280;70145;53.746;9.970;2023-10-09T01:50:22;101628.25;;;9.73;59.65
80749;BME280;70145;53.746;9.970;2023-10-09T01:52:50;101626.44;;;9.74;60.00
80749;BME280;70145;53.746;9.970;2023-10-09T01:55:19;101630.06;;;9.73;59.93
80749;BME280;70145;53.746;9.970;2023-10-09T01:58:00;101630.06;;;9.73;59.79
80749;BME280;70145;53.746;9.970;2023-10-09T02:00:33;101619.31;;;9.73;60.11
80749;BME280;70145;53.746;9.970;2023-10-09T02:03:07;101630.06;;;9.73;59.70
80749;BME280;70145;53.746;9.970;2023-10-09T02:05:39;101631.91;;;9.72;60.34
80749;BME280;70145;53.746;9.970;2023-10-09T02:08:04;101628.34;;;9.72;59.88
80749;BME280;70145;53.746;9.970;2023-10-09T02:10:31;101631.03;;;9.72;59.95
80749;BME280;70145;53.746;9.970;2023-10-09T02:13:05;101624.88;;;9.70;60.13
80749;BME280;70145;53.746;9.970;2023-10-09T02:15:39;101616.09;;;9.68;60.16
80749;BME280;70145;53.746;9.970;2023-10-09T02:18:08;101624.16;;;9.68;60.04
80749;BME280;70145;53.746;9.970;2023-10-09T02:21:06;101618.00;;;9.66;60.10
80749;BME280;70145;53.746;9.970;2023-10-09T02:23:35;101601.03;;;9.65;60.19
80749;BME280;70145;53.746;9.970;2023-10-09T02:26:10;101576.03;;;9.63;60.04
80749;BME280;70145;53.746;9.970;2023-10-09T02:28:43;101577.97;;;9.61;60.14
80749;BME280;70145;53.746;9.970;2023-10-09T02:31:10;101598.63;;;9.61;60.17
80749;BME280;70145;53.746;9.970;2023-10-09T02:33:36;101599.56;;;9.60;59.92
80749;BME280;70145;53.746;9.970;2023-10-09T02:36:04;101584.41;;;9.59;59.91
80749;BME280;70145;53.746;9.970;2023-10-09T02:38:32;101583.53;;;9.58;60.39
80749;BME280;70145;53.746;9.970;2023-10-09T02:41:01;101569.25;;;9.58;60.21
80749;BME280;70145;53.746;9.970;2023-10-09T02:43:32;101581.81;;;9.57;60.08
80749;BME280;70145;53.746;9.970;2023-10-09T02:46:14;101566.78;;;9.55;60.52
80749;BME280;70145;53.746;9.970;2023-10-09T02:48:46;101562.34;;;9.54;60.14
80749;BME280;70145;53.746;9.970;2023-10-09T02:51:18;101565.25;;;9.51;60.27
80749;BME280;70145;53.746;9.970;2023-10-09T02:54:01;101563.50;;;9.50;60.26
80749;BME280;70145;53.746;9.970;2023-10-09T02:56:47;101567.19;;;9.49;60.37
80749;BME280;70145;53.746;9.970;2023-10-09T02:59:13;101563.72;;;9.47;60.44
80749;BME280;70145;53.746;9.970;2023-10-09T03:01:40;101550.38;;;9.45;60.46
80749;BME280;70145;53.746;9.970;2023-10-09T03:04:08;101541.47;;;9.45;60.59
80749;BME280;70145;53.746;9.970;2023-10-09T03:06:40;101541.66;;;9.42;60.59
80749;BME280;70145;53.746;9.970;2023-10-09T03:09:18;101538.22;;;9.40;60.63
80749;BME280;70145;53.746;9.970;2023-10-09T03:11:48;101539.28;;;9.37;60.68
80749;BME280;70145;53.746;9.970;2023-10-09T03:14:21;101525.84;;;9.37;60.37
80749;BME280;70145;53.746;9.970;2023-10-09T03:16:50;101522.28;;;9.37;60.55
80749;BME280;70145;53.746;9.970;2023-10-09T03:19:15;101524.13;;;9.36;60.45
80749;BME280;70145;53.746;9.970;2023-10-09T03:21:41;101520.53;;;9.36;60.71
80749;BME280;70145;53.746;9.970;2023-10-09T03:24:07;101512.47;;;9.36;60.37
80749;BME280;70145;53.746;9.970;2023-10-09T03:26:33;101508.06;;;9.35;60.55
80749;BME280;70145;53.746;9.970;2023-10-09T03:28:59;101499.03;;;9.36;60.57
80749;BME280;70145;53.746;9.970;2023-10-09T03:31:32;101503.53;;;9.35;60.64
80749;BME280;70145;53.746;9.970;2023-10-09T03:33:58;101490.09;;;9.35;60.36
80749;BME280;70145;53.746;9.970;2023-10-09T03:36:23;101487.50;;;9.34;60.68
80749;BME280;70145;53.746;9.970;2023-10-09T03:38:52;101488.59;;;9.31;60.52
80749;BME280;70145;53.746;9.970;2023-10-09T03:41:19;101486.19;;;9.27;60.65
80749;BME280;70145;53.746;9.970;2023-10-09T03:43:45;101501.34;;;9.28;60.28
80749;BME280;70145;53.746;9.970;2023-10-09T03:46:11;101504.28;;;9.25;60.68
80749;BME280;70145;53.746;9.970;2023-10-09T03:48:58;101490.28;;;9.20;60.66
80749;BME280;70145;53.746;9.970;2023-10-09T03:51:27;101479.53;;;9.20;60.79
80749;BME280;70145;53.746;9.970;2023-10-09T03:53:52;101487.59;;;9.20;60.46
80749;BME280;70145;53.746;9.970;2023-10-09T03:56:18;101475.88;;;9.21;60.67
80749;BME280;70145;53.746;9.970;2023-10-09T03:58:48;101479.41;;;9.21;60.50
80749;BME280;70145;53.746;9.970;2023-10-09T04:01:18;101481.22;;;9.21;60.69
80749;BME280;70145;53.746;9.970;2023-10-09T04:04:04;101476.06;;;9.18;60.44
80749;BME280;70145;53.746;9.970;2023-10-09T04:06:32;101472.63;;;9.16;60.33
80749;BME280;70145;53.746;9.970;2023-10-09T04:08:58;101469.94;;;9.16;60.42
80749;BME280;70145;53.746;9.970;2023-10-09T04:11:24;101467.25;;;9.16;60.53
80749;BME280;70145;53.746;9.970;2023-10-09T04:13:50;101471.88;;;9.14;60.66
80749;BME280;70145;53.746;9.970;2023-10-09T04:16:17;101474.56;;;9.14;60.47
80749;BME280;70145;53.746;9.970;2023-10-09T04:18:58;101477.25;;;9.14;60.50
80749;BME280;70145;53.746;9.970;2023-10-09T04:21:24;101466.59;;;9.12;60.27
80749;BME280;70145;53.746;9.970;2023-10-09T04:24:06;101465.84;;;9.10;60.24
80749;BME280;70145;53.746;9.970;2023-10-09T04:26:44;101461.44;;;9.09;60.42
80749;BME280;70145;53.746;9.970;2023-10-09T04:29:14;101454.34;;;9.08;60.39
80749;BME280;70145;53.746;9.970;2023-10-09T04:31:55;101467.00;;;9.06;60.05
80749;BME280;70145;53.746;9.970;2023-10-09T04:34:25;101457.31;;;9.04;60.15
80749;BME280;70145;53.746;9.970;2023-10-09T04:37:00;101452.06;;;9.02;60.40
80749;BME280;70145;53.746;9.970;2023-10-09T04:39:29;101453.03;;;9.01;60.42
80749;BME280;70145;53.746;9.970;2023-10-09T04:41:55;101448.50;;;9.02;60.11
80749;BME280;70145;53.746;9.970;2023-10-09T04:44:39;101465.59;;;9.01;60.23
80749;BME280;70145;53.746;9.970;2023-10-09T04:47:04;101462.03;;;9.00;60.33
80749;BME280;70145;53.746;9.970;2023-10-09T04:49:33;101468.47;;;8.98;60.33
80749;BME280;70145;53.746;9.970;2023-10-09T04:52:18;101471.06;;;8.99;60.18
80749;BME280;70145;53.746;9.970;2023-10-09T04:55:03;101464.84;;;8.99;59.99
80749;BME280;70145;53.746;9.970;2023-10-09T04:57:36;101451.63;;;8.96;60.30
80749;BME280;70145;53.746;9.970;2023-10-09T05:00:24;101443.56;;;8.96;60.16
80749;BME280;70145;53.746;9.970;2023-10-09T05:02:51;101442.69;;;8.95;60.36
80749;BME280;70145;53.746;9.970;2023-10-09T05:05:20;101431.06;;;8.95;60.13
80749;BME280;70145;53.746;9.970;2023-10-09T05:08:05;101428.47;;;8.93;60.48
80749;BME280;70145;53.746;9.970;2023-10-09T05:10:45;101416.91;;;8.93;60.37
80749;BME280;70145;53.746;9.970;2023-10-09T05:13:33;101414.53;;;8.88;60.17
80749;BME280;70145;53.746;9.970;2023-10-09T05:18:42;101396.75;;;8.86;60.29
80749;BME280;70145;53.746;9.970;2023-10-09T05:21:10;101405.78;;;8.85;60.58
80749;BME280;70145;53.746;9.970;2023-10-09T05:23:41;101408.78;;;8.80;60.42
80749;BME280;70145;53.746;9.970;2023-10-09T05:26:14;101402.56;;;8.80;60.78
80749;BME280;70145;53.746;9.970;2023-10-09T05:28:57;101399.00;;;8.79;60.81
80749;BME280;70145;53.746;9.970;2023-10-09T05:31:23;101398.03;;;8.80;60.71
80749;BME280;70145;53.746;9.970;2023-10-09T05:34:07;101382.13;;;8.77;60.29
80749;BME280;70145;53.746;9.970;2023-10-09T05:36:33;101403.50;;;8.79;60.63
80749;BME280;70145;53.746;9.970;2023-10-09T05:39:00;101407.16;;;8.78;60.88
80749;BME280;70145;53.746;9.970;2023-10-09T05:41:45;101393.16;;;8.73;60.52
80749;BME280;70145;53.746;9.970;2023-10-09T05:44:16;101407.38;;;8.75;60.16
80749;BME280;70145;53.746;9.970;2023-10-09T05:47:00;101425.19;;;8.76;60.28
80749;BME280;70145;53.746;9.970;2023-10-09T05:49:44;101427.88;;;8.76;60.48
80749;BME280;70145;53.746;9.970;2023-10-09T05:52:12;101417.13;;;8.76;60.30
80749;BME280;70145;53.746;9.970;2023-10-09T05:54:56;101403.72;;;8.76;60.71
80749;BME280;70145;53.746;9.970;2023-10-09T05:57:40;101396.81;;;8.72;60.82
80749;BME280;70145;53.746;9.970;2023-10-09T06:00:26;101386.97;;;8.72;60.44
80749;BME280;70145;53.746;9.970;2023-10-09T06:03:11;101395.13;;;8.71;60.68
80749;BME280;70145;53.746;9.970;2023-10-09T06:06:03;101406.84;;;8.70;60.92
80749;BME280;70145;53.746;9.970;2023-10-09T06:08:31;101413.25;;;8.67;60.92
80749;BME280;70145;53.746;9.970;2023-10-09T06:11:06;101416.13;;;8.64;60.82
80749;BME280;70145;53.746;9.970;2023-10-09T06:13:55;101427.75;;;8.65;61.17
80749;BME280;70145;53.746;9.970;2023-10-09T06:16:36;101420.56;;;8.65;61.25
80749;BME280;70145;53.746;9.970;2023-10-09T06:19:12;101404.53;;;8.64;61.20
80749;BME280;70145;53.746;9.970;2023-10-09T06:21:51;101398.19;;;8.65;61.17
80749;BME280;70145;53.746;9.970;2023-10-09T06:24:28;101424.19;;;8.64;61.26
80749;BME280;70145;53.746;9.970;2023-10-09T06:26:59;101415.50;;;8.61;61.39
80749;BME280;70145;53.746;9.970;2023-10-09T06:29:29;101393.13;;;8.60;60.90
80749;BME280;70145;53.746;9.970;2023-10-09T06:32:07;101391.72;;;8.55;61.75
80749;BME280;70145;53.746;9.970;2023-10-09T06:34:58;101388.25;;;8.53;61.61
80749;BME280;70145;53.746;9.970;2023-10-09T06:37:50;101374.31;;;8.48;61.48
80749;BME280;70145;53.746;9.970;2023-10-09T06:40:32;101382.34;;;8.48;61.81
80749;BME280;70145;53.746;9.970;2023-10-09T06:43:04;101386.94;;;8.46;61.56
80749;BME280;70145;53.746;9.970;2023-10-09T06:45:34;101384.66;;;8.40;62.15
80749;BME280;70145;53.746;9.970;2023-10-09T06:48:09;101383.72;;;8.41;62.12
80749;BME280;70145;53.746;9.970;2023-10-09T06:50:55;101387.16;;;8.43;61.78
80749;BME280;70145;53.746;9.970;2023-10-09T06:53:21;101389.84;;;8.43;61.91
80749;BME280;70145;53.746;9.970;2023-10-09T06:55:50;101392.63;;;8.41;62.20
80749;BME280;70145;53.746;9.970;2023-10-09T06:58:30;101383.63;;;8.42;62.01
80749;BME280;70145;53.746;9.970;2023-10-09T07:01:07;101399.63;;;8.44;62.09
80749;BME280;70145;53.746;9.970;2023-10-09T07:03:45;101380.84;;;8.44;62.36
80749;BME280;70145;53.746;9.970;2023-10-09T07:06:25;101379.88;;;8.45;61.82
80749;BME280;70145;53.746;9.970;2023-10-09T07:09:10;101375.47;;;8.44;62.26
80749;BME280;70145;53.746;9.970;2023-10-09T07:11:38;101364.75;;;8.44;62.38
80749;BME280;70145;53.746;9.970;2023-10-09T07:14:07;101370.84;;;8.46;62.54
80749;BME280;70145;53.746;9.970;2023-10-09T07:16:35;101369.97;;;8.45;62.23
80749;BME280;70145;53.746;9.970;2023-10-09T07:19:06;101378.91;;;8.46;62.30
80749;BME280;70145;53.746;9.970;2023-10-09T07:21:38;101367.28;;;8.45;62.77
80749;BME280;70145;53.746;9.970;2023-10-09T07:24:07;101369.03;;;8.46;62.61
80749;BME280;70145;53.746;9.970;2023-10-09T07:26:42;101376.00;;;8.49;62.61
80749;BME280;70145;53.746;9.970;2023-10-09T07:29:18;101372.34;;;8.50;62.23
80749;BME280;70145;53.746;9.970;2023-10-09T07:31:47;101367.97;;;8.49;62.54
80749;BME280;70145;53.746;9.970;2023-10-09T07:34:22;101355.31;;;8.51;62.86
80749;BME280;70145;53.746;9.970;2023-10-09T07:36:57;101355.41;;;8.49;62.73
80749;BME280;70145;53.746;9.970;2023-10-09T07:39:23;101349.94;;;8.51;63.07
80749;BME280;70145;53.746;9.970;2023-10-09T07:41:49;101348.09;;;8.51;62.95
80749;BME280;70145;53.746;9.970;2023-10-09T07:44:21;101359.72;;;8.52;62.83
80749;BME280;70145;53.746;9.970;2023-10-09T07:47:02;101369.47;;;8.53;62.90
80749;BME280;70145;53.746;9.970;2023-10-09T07:49:43;101373.91;;;8.54;63.16
80749;BME280;70145;53.746;9.970;2023-10-09T07:52:14;101372.16;;;8.53;63.37
80749;BME280;70145;53.746;9.970;2023-10-09T07:54:39;101373.81;;;8.55;62.81
80749;BME280;70145;53.746;9.970;2023-10-09T07:57:12;101364.88;;;8.55;63.17
80749;BME280;70145;53.746;9.970;2023-10-09T07:59:51;101371.00;;;8.57;62.93
80749;BME280;70145;53.746;9.970;2023-10-09T08:02:37;101359.31;;;8.58;62.80
80749;BME280;70145;53.746;9.970;2023-10-09T08:05:04;101359.31;;;8.58;63.19
80749;BME280;70145;53.746;9.970;2023-10-09T08:07:43;101349.53;;;8.57;63.45
80749;BME280;70145;53.746;9.970;2023-10-09T08:10:19;101351.97;;;8.60;63.26
80749;BME280;70145;53.746;9.970;2023-10-09T08:12:45;101358.44;;;8.57;63.68
80749;BME280;70145;53.746;9.970;2023-10-09T08:15:14;101370.03;;;8.58;63.84
80749;BME280;70145;53.746;9.970;2023-10-09T08:17:52;101359.31;;;8.58;63.42
80749;BME280;70145;53.746;9.970;2023-10-09T08:20:27;101363.69;;;8.59;63.52
80749;BME280;70145;53.746;9.970;2023-10-09T08:23:01;101368.09;;;8.60;63.48
80749;BME280;70145;53.746;9.970;2023-10-09T08:25:30;101369.94;;;8.59;63.87
80749;BME280;70145;53.746;9.970;2023-10-09T08:28:01;101379.81;;;8.59;63.73
80749;BME280;70145;53.746;9.970;2023-10-09T08:30:39;101371.66;;;8.60;63.70
80749;BME280;70145;53.746;9.970;2023-10-09T08:33:16;101373.38;;;8.61;63.58
80749;BME280;70145;53.746;9.970;2023-10-09T08:35:50;101368.88;;;8.62;63.40
80749;BME280;70145;53.746;9.970;2023-10-09T08:38:17;101372.31;;;8.64;63.38
80749;BME280;70145;53.746;9.970;2023-10-09T08:40:50;101369.53;;;8.65;63.47
80749;BME280;70145;53.746;9.970;2023-10-09T08:43:20;101364.16;;;8.65;64.21
80749;BME280;70145;53.746;9.970;2023-10-09T08:46:04;101373.94;;;8.66;63.96
80749;BME280;70145;53.746;9.970;2023-10-09T08:48:30;101364.91;;;8.67;63.84
80749;BME280;70145;53.746;9.970;2023-10-09T08:50:56;101362.88;;;8.71;63.55
80749;BME280;70145;53.746;9.970;2023-10-09T08:53:23;101369.13;;;8.71;63.88
80749;BME280;70145;53.746;9.970;2023-10-09T08:55:49;101366.31;;;8.73;64.08
80749;BME280;70145;53.746;9.970;2023-10-09T08:58:17;101367.84;;;8.77;63.96
80749;BME280;70145;53.746;9.970;2023-10-09T09:00:57;101363.13;;;8.80;64.03
80749;BME280;70145;53.746;9.970;2023-10-09T09:03:24;101372.16;;;8.79;63.83
80749;BME280;70145;53.746;9.970;2023-10-09T09:06:00;101366.56;;;8.82;63.75
80749;BME280;70145;53.746;9.970;2023-10-09T09:08:27;101355.72;;;8.84;63.84
80749;BME280;70145;53.746;9.970;2023-10-09T09:11:12;101363.78;;;8.84;64.19
80749;BME280;70145;53.746;9.970;2023-10-09T09:13:42;101363.59;;;8.87;64.01
80749;BME280;70145;53.746;9.970;2023-10-09T09:16:24;101364.41;;;8.87;63.99
80749;BME280;70145;53.746;9.970;2023-10-09T09:19:05;101360.69;;;8.90;63.98
80749;BME280;70145;53.746;9.970;2023-10-09T09:21:48;101360.47;;;8.93;63.85
80749;BME280;70145;53.746;9.970;2023-10-09T09:24:15;101363.06;;;8.94;63.96
80749;BME280;70145;53.746;9.970;2023-10-09T09:26:57;101355.84;;;8.95;63.92
80749;BME280;70145;53.746;9.970;2023-10-09T09:32:07;101359.19;;;8.98;64.35
80749;BME280;70145;53.746;9.970;2023-10-09T09:34:47;101352.94;;;8.98;64.16
80749;BME280;70145;53.746;9.970;2023-10-09T09:37:21;101351.88;;;9.00;64.30
80749;BME280;70145;53.746;9.970;2023-10-09T09:39:47;101352.53;;;9.04;64.42
80749;BME280;70145;53.746;9.970;2023-10-09T09:42:15;101350.50;;;9.07;64.46
80749;BME280;70145;53.746;9.970;2023-10-09T09:44:44;101345.88;;;9.09;64.27
80749;BME280;70145;53.746;9.970;2023-10-09T09:47:13;101353.84;;;9.11;64.30
80749;BME280;70145;53.746;9.970;2023-10-09T09:49:41;101344.81;;;9.12;64.53
80749;BME280;70145;53.746;9.970;2023-10-09T09:52:07;101349.22;;;9.13;64.65
80749;BME280;70145;53.746;9.970;2023-10-09T09:54:36;101342.13;;;9.12;64.96
80749;BME280;70145;53.746;9.970;2023-10-09T09:57:03;101336.41;;;9.16;64.33
80749;BME280;70145;53.746;9.970;2023-10-09T09:59:36;101345.56;;;9.14;64.99
80749;BME280;70145;53.746;9.970;2023-10-09T10:02:05;101336.22;;;9.19;64.53
80749;BME280;70145;53.746;9.970;2023-10-09T10:04:34;101336.09;;;9.21;64.71
80749;BME280;70145;53.746;9.970;2023-10-09T10:07:02;101326.22;;;9.21;64.25
80749;BME280;70145;53.746;9.970;2023-10-09T10:09:38;101332.25;;;9.25;64.49
80749;BME280;70145;53.746;9.970;2023-10-09T10:12:04;101324.94;;;9.27;64.31
80749;BME280;70145;53.746;9.970;2023-10-09T10:14:58;101326.63;;;9.28;64.43
80749;BME280;70145;53.746;9.970;2023-10-09T10:17:25;101314.84;;;9.30;64.68
80749;BME280;70145;53.746;9.970;2023-10-09T10:20:08;101306.00;;;9.28;65.09
80749;BME280;70145;53.746;9.970;2023-10-09T10:22:42;101308.59;;;9.30;65.02
80749;BME280;70145;53.746;9.970;2023-10-09T10:25:32;101321.03;;;9.31;64.90
80749;BME280;70145;53.746;9.970;2023-10-09T10:30:47;101336.03;;;9.35;65.22
80749;BME280;70145;53.746;9.970;2023-10-09T10:33:16;101334.16;;;9.35;65.48
80749;BME280;70145;53.746;9.970;2023-10-09T10:35:41;101336.78;;;9.37;65.44
80749;BME280;70145;53.746;9.970;2023-10-09T10:38:28;101335.59;;;9.41;64.80
80749;BME280;70145;53.746;9.970;2023-10-09T10:41:15;101339.81;;;9.45;64.97
80749;BME280;70145;53.746;9.970;2023-10-09T10:43:44;101338.72;;;9.47;65.09
80749;BME280;70145;53.746;9.970;2023-10-09T10:46:16;101335.94;;;9.49;65.14
80749;BME280;70145;53.746;9.970;2023-10-09T10:48:47;101337.44;;;9.53;65.18
80749;BME280;70145;53.746;9.970;2023-10-09T10:51:14;101340.78;;;9.56;64.87
80749;BME280;70145;53.746;9.970;2023-10-09T10:53:53;101336.00;;;9.60;64.76
80749;BME280;70145;53.746;9.970;2023-10-09T10:56:38;101340.34;;;9.62;64.96
80749;BME280;70145;53.746;9.970;2023-10-09T10:59:05;101335.69;;;9.64;64.84
80749;BME280;70145;53.746;9.970;2023-10-09T11:01:33;101331.91;;;9.67;64.82
80749;BME280;70145;53.746;9.970;2023-10-09T11:04:20;101331.91;;;9.67;65.04
80749;BME280;70145;53.746;9.970;2023-10-09T11:07:02;101324.59;;;9.69;64.87
80749;BME280;70145;53.746;9.970;2023-10-09T11:09:52;101321.69;;;9.72;64.90
80749;BME280;70145;53.746;9.970;2023-10-09T11:12:26;101320.63;;;9.74;64.86
80749;BME280;70145;53.746;9.970;2023-10-09T11:15:06;101320.41;;;9.77;64.98
80749;BME280;70145;53.746;9.970;2023-10-09T11:17:33;101317.38;;;9.82;64.62
80749;BME280;70145;53.746;9.970;2023-10-09T11:20:03;101319.09;;;9.83;64.91
80749;BME280;70145;53.746;9.970;2023-10-09T11:22:51;101318.97;;;9.84;64.75
80749;BME280;70145;53.746;9.970;2023-10-09T11:25:35;101320.59;;;9.87;64.89
80749;BME280;70145;53.746;9.970;2023-10-09T11:28:02;101327.81;;;9.86;65.10
80749;BME280;70145;53.746;9.970;2023-10-09T11:30:48;101317.81;;;9.88;65.17
80749;BME280;70145;53.746;9.970;2023-10-09T11:33:20;101322.97;;;9.92;64.91
80749;BME280;70145;53.746;9.970;2023-10-09T11:35:55;101320.91;;;9.95;65.20
80749;BME280;70145;53.746;9.970;2023-10-09T11:38:22;101321.88;;;9.94;65.26
80749;BME280;70145;53.746;9.970;2023-10-09T11:40:48;101316.28;;;9.97;65.19
80749;BME280;70145;53.746;9.970;2023-10-09T11:43:20;101306.34;;;9.98;65.24
80749;BME280;70145;53.746;9.970;2023-10-09T11:46:11;101310.66;;;10.00;65.35
80749;BME280;70145;53.746;9.970;2023-10-09T11:48:36;101312.38;;;10.01;65.25
80749;BME280;70145;53.746;9.970;2023-10-09T11:51:22;101315.81;;;10.03;65.74
80749;BME280;70145;53.746;9.970;2023-10-09T11:53:47;101313.88;;;10.05;65.49
80749;BME280;70145;53.746;9.970;2023-10-09T11:56:16;101311.94;;;10.07;65.54
80749;BME280;70145;53.746;9.970;2023-10-09T11:58:48;101321.72;;;10.08;65.75
80749;BME280;70145;53.746;9.970;2023-10-09T12:01:17;101320.63;;;10.11;65.85
80749;BME280;70145;53.746;9.970;2023-10-09T12:03:49;101314.06;;;10.15;65.84
80749;BME280;70145;53.746;9.970;2023-10-09T12:06:16;101311.03;;;10.19;65.16
80749;BME280;70145;53.746;9.970;2023-10-09T12:08:44;101308.09;;;10.22;65.43
80749;BME280;70145;53.746;9.970;2023-10-09T12:11:17;101310.44;;;10.27;65.39
80749;BME280;70145;53.746;9.970;2023-10-09T12:13:48;101302.91;;;10.32;65.29
80749;BME280;70145;53.746;9.970;2023-10-09T12:16:14;101303.41;;;10.37;65.44
80749;BME280;70145;53.746;9.970;2023-10-09T12:18:41;101305.25;;;10.36;65.63
80749;BME280;70145;53.746;9.970;2023-10-09T12:21:08;101309.31;;;10.42;65.34
80749;BME280;70145;53.746;9.970;2023-10-09T12:23:33;101310.09;;;10.44;65.39
80749;BME280;70145;53.746;9.970;2023-10-09T12:26:04;101314.38;;;10.46;65.24
80749;BME280;70145;53.746;9.970;2023-10-09T12:28:30;101314.16;;;10.49;65.13
80749;BME280;70145;53.746;9.970;2023-10-09T12:30:58;101314.88;;;10.51;65.16
80749;BME280;70145;53.746;9.970;2023-10-09T12:33:27;101315.53;;;10.55;65.25
80749;BME280;70145;53.746;9.970;2023-10-09T12:35:56;101318.00;;;10.58;65.04
80749;BME280;70145;53.746;9.970;2023-10-09T12:38:26;101322.16;;;10.62;65.06
80749;BME280;70145;53.746;9.970;2023-10-09T12:41:07;101315.78;;;10.63;65.14
80749;BME280;70145;53.746;9.970;2023-10-09T12:43:48;101321.06;;;10.64;65.11
80749;BME280;70145;53.746;9.970;2023-10-09T12:46:14;101312.03;;;10.65;65.00
80749;BME280;70145;53.746;9.970;2023-10-09T12:48:45;101315.44;;;10.67;65.42
80749;BME280;70145;53.746;9.970;2023-10-09T12:51:14;101310.81;;;10.69;65.12
80749;BME280;70145;53.746;9.970;2023-10-09T12:53:45;101312.28;;;10.73;65.11
80749;BME280;70145;53.746;9.970;2023-10-09T12:56:14;101310.34;;;10.75;65.25
80749;BME280;70145;53.746;9.970;2023-10-09T12:58:40;101305.44;;;10.80;65.18
80749;BME280;70145;53.746;9.970;2023-10-09T13:01:10;101297.13;;;10.83;65.17
80749;BME280;70145;53.746;9.970;2023-10-09T13:03:36;101304.97;;;10.86;65.38
80749;BME280;70145;53.746;9.970;2023-10-09T13:06:04;101300.34;;;10.88;64.97
80749;BME280;70145;53.746;9.970;2023-10-09T13:08:36;101299.13;;;10.92;65.15
80749;BME280;70145;53.746;9.970;2023-10-09T13:11:03;101301.59;;;10.95;65.20
80749;BME280;70145;53.746;9.970;2023-10-09T13:13:42;101298.88;;;10.95;65.08
80749;BME280;70145;53.746;9.970;2023-10-09T13:16:20;101296.19;;;10.95;65.15
80749;BME280;70145;53.746;9.970;2023-10-09T13:18:49;101297.19;;;10.94;65.33
80749;BME280;70145;53.746;9.970;2023-10-09T13:21:27;101294.25;;;10.97;65.26
80749;BME280;70145;53.746;9.970;2023-10-09T13:23:57;101293.16;;;11.00;65.41
80749;BME280;70145;53.746;9.970;2023-10-09T13:26:22;101298.41;;;11.01;65.50
80749;BME280;70145;53.746;9.970;2023-10-09T13:28:55;101302.81;;;11.02;65.45
80749;BME280;70145;53.746;9.970;2023-10-09T13:31:22;101297.31;;;11.04;65.24
80749;BME280;70145;53.746;9.970;2023-10-09T13:33:51;101296.09;;;11.08;65.25
80749;BME280;70145;53.746;9.970;2023-10-09T13:36:19;101292.19;;;11.12;65.28
80749;BME280;70145;53.746;9.970;2023-10-09T13:38:52;101296.47;;;11.14;65.25